Terminal Aerodrome Forecast
Issued by NWS

Home | Current Version | Previous Version | Text Only | Print | Product List | Glossary On
Versions: 1 2 3 4 5 6 7 8 9 10 11 12 13 14 15 16
000
FTUS43 KFGF 180527
TAFBJI
TAF
KBJI 180527Z 1806/1906 31005KT P6SM BKN200
     FM181500 30009KT P6SM BKN090
     FM181700 30013KT P6SM BKN070
     FM182300 30012KT P6SM SCT100
     FM190400 29008KT P6SM FEW250=

USA.gov is the U.S. government's official web portal to all federal, state and local government web resources and services.